Addyston, Ohio
Current Conditions -  °F | °C
As of 5:52 PM on Friday 31 Oct 2014 (Local Time) from KCVG Reporting Station
Overcast Overcast  
Wind Chill: 31°   Ceiling: 2700
Heat Index: 40°   Visibility: 10mi
Dew Point: 34°   Wind: 17mph
Humidity: 79%   Direction: 310°NW
Pressure: 29.95"   Gusts: NA
Location:  39.14°N, 84.71°W
Report Text: KCVG 312152Z 31015KT 10SM SCT018 OVC027 04/01 A2995 RMK AO2 RAE03 SLP143 P0000 T00440011 VISNO 36R
Loading
Personal Weather Stations






























Interactive Weather Map
Tropical Storm Tracking
New forecast layout! Learn more

10-Day Weather Forecast

Advertisements
Track Severe Weather on mobile